Weather at Boisvert & Fils Seaplane Base

Public forecast

Using degrees Celsius for public forecast. Weather courtesy of forecast.io.

Closest aviation weather report (METAR) to Boisvert & Fils Seaplane Base

Closest report is Montréal / Saint-Hubert Airport, 10.8 nm (20.0 km) SE.

2024/05/26 21:00 (retrieved 15 minutes ago)

CYHU 262100Z AUTO VRB03KT 9SM FEW076 25/11 A2994 RMK SLP140 DENSITY ALT 1300FT

Closest aviation forecast (TAF) to Boisvert & Fils Seaplane Base

Closest forecast is Montréal / Saint-Hubert Airport, 10.8 nm (20.0 km) SE.

2024/05/26 18:42 (retrieved 3 hours ago)

TAF CYHU 261740Z 2618/2718 21005KT P6SM FEW040 BECMG 2621/2623 06008KT FM270500 06008KT P6SM SCT080 BKN250 BECMG 2711/2713 15015G25KT FM271300 15015G25KT P6SM BKN040 BKN090 OVC200 FM271600 16018G28KT P6SM -SHRA BKN030 OVC120 RMK FCST BASED ON AUTO OBS NXT FCST BY 270000Z